sensor_id;sensor_type;location;lat;lon;timestamp;P1;durP1;ratioP1;P2;durP2;ratioP2
65206;SDS011;58477;48.072;11.970;2023-08-30T00:00:04;9.30;;;7.07;;
65206;SDS011;58477;48.072;11.970;2023-08-30T00:02:31;8.73;;;6.78;;
65206;SDS011;58477;48.072;11.970;2023-08-30T00:05:00;9.60;;;7.68;;
65206;SDS011;58477;48.072;11.970;2023-08-30T00:07:28;10.27;;;7.85;;
65206;SDS011;58477;48.072;11.970;2023-08-30T00:09:53;11.07;;;8.15;;
65206;SDS011;58477;48.072;11.970;2023-08-30T00:12:19;11.05;;;7.95;;
65206;SDS011;58477;48.072;11.970;2023-08-30T00:14:44;14.35;;;8.30;;
65206;SDS011;58477;48.072;11.970;2023-08-30T00:17:10;8.70;;;6.97;;
65206;SDS011;58477;48.072;11.970;2023-08-30T00:19:35;10.38;;;8.13;;
65206;SDS011;58477;48.072;11.970;2023-08-30T00:22:01;9.65;;;7.28;;
65206;SDS011;58477;48.072;11.970;2023-08-30T00:24:26;9.75;;;7.75;;
65206;SDS011;58477;48.072;11.970;2023-08-30T00:26:53;9.90;;;7.88;;
65206;SDS011;58477;48.072;11.970;2023-08-30T00:29:19;11.40;;;8.18;;
65206;SDS011;58477;48.072;11.970;2023-08-30T00:31:44;9.00;;;7.28;;
65206;SDS011;58477;48.072;11.970;2023-08-30T00:34:10;10.13;;;7.63;;
65206;SDS011;58477;48.072;11.970;2023-08-30T00:36:35;13.20;;;8.13;;
65206;SDS011;58477;48.072;11.970;2023-08-30T00:39:01;9.43;;;7.43;;
65206;SDS011;58477;48.072;11.970;2023-08-30T00:41:28;9.10;;;7.18;;
65206;SDS011;58477;48.072;11.970;2023-08-30T00:43:54;7.80;;;6.47;;
65206;SDS011;58477;48.072;11.970;2023-08-30T00:46:19;9.60;;;7.65;;
65206;SDS011;58477;48.072;11.970;2023-08-30T00:48:44;10.63;;;7.22;;
65206;SDS011;58477;48.072;11.970;2023-08-30T00:51:10;10.02;;;7.60;;
65206;SDS011;58477;48.072;11.970;2023-08-30T00:53:36;8.75;;;7.50;;
65206;SDS011;58477;48.072;11.970;2023-08-30T00:56:02;10.77;;;7.57;;
65206;SDS011;58477;48.072;11.970;2023-08-30T00:58:27;11.05;;;7.57;;
65206;SDS011;58477;48.072;11.970;2023-08-30T01:00:53;13.85;;;7.97;;
65206;SDS011;58477;48.072;11.970;2023-08-30T01:03:20;11.25;;;8.60;;
65206;SDS011;58477;48.072;11.970;2023-08-30T01:05:46;10.77;;;8.25;;
65206;SDS011;58477;48.072;11.970;2023-08-30T01:08:12;11.52;;;8.43;;
65206;SDS011;58477;48.072;11.970;2023-08-30T01:10:47;12.88;;;8.07;;
65206;SDS011;58477;48.072;11.970;2023-08-30T01:13:37;11.77;;;8.20;;
65206;SDS011;58477;48.072;11.970;2023-08-30T01:16:10;13.95;;;8.52;;
65206;SDS011;58477;48.072;11.970;2023-08-30T01:18:36;10.57;;;7.55;;
65206;SDS011;58477;48.072;11.970;2023-08-30T01:21:04;10.15;;;7.95;;
65206;SDS011;58477;48.072;11.970;2023-08-30T01:29:07;11.50;;;8.02;;
65206;SDS011;58477;48.072;11.970;2023-08-30T01:31:35;11.77;;;8.52;;
65206;SDS011;58477;48.072;11.970;2023-08-30T01:34:03;12.45;;;9.35;;
65206;SDS011;58477;48.072;11.970;2023-08-30T01:36:29;12.18;;;8.52;;
65206;SDS011;58477;48.072;11.970;2023-08-30T01:38:57;11.15;;;8.60;;
65206;SDS011;58477;48.072;11.970;2023-08-30T01:41:24;11.48;;;8.35;;
65206;SDS011;58477;48.072;11.970;2023-08-30T01:43:51;13.27;;;7.90;;
65206;SDS011;58477;48.072;11.970;2023-08-30T01:46:17;11.88;;;7.85;;
65206;SDS011;58477;48.072;11.970;2023-08-30T01:48:44;10.80;;;7.90;;
65206;SDS011;58477;48.072;11.970;2023-08-30T01:51:12;12.50;;;7.80;;
65206;SDS011;58477;48.072;11.970;2023-08-30T01:53:41;11.57;;;8.38;;
65206;SDS011;58477;48.072;11.970;2023-08-30T01:56:08;13.77;;;8.77;;
65206;SDS011;58477;48.072;11.970;2023-08-30T01:58:34;12.27;;;8.60;;
65206;SDS011;58477;48.072;11.970;2023-08-30T02:00:59;12.40;;;7.85;;
65206;SDS011;58477;48.072;11.970;2023-08-30T02:03:25;11.43;;;7.78;;
65206;SDS011;58477;48.072;11.970;2023-08-30T02:06:11;12.82;;;8.75;;
65206;SDS011;58477;48.072;11.970;2023-08-30T02:08:41;12.43;;;7.90;;
65206;SDS011;58477;48.072;11.970;2023-08-30T02:11:17;14.38;;;9.00;;
65206;SDS011;58477;48.072;11.970;2023-08-30T02:13:47;11.95;;;7.88;;
65206;SDS011;58477;48.072;11.970;2023-08-30T02:16:14;11.57;;;8.23;;
65206;SDS011;58477;48.072;11.970;2023-08-30T02:18:41;14.45;;;8.90;;
65206;SDS011;58477;48.072;11.970;2023-08-30T02:21:07;11.93;;;8.73;;
65206;SDS011;58477;48.072;11.970;2023-08-30T02:23:33;11.15;;;7.88;;
65206;SDS011;58477;48.072;11.970;2023-08-30T02:25:58;12.05;;;8.45;;
65206;SDS011;58477;48.072;11.970;2023-08-30T02:28:24;11.18;;;7.75;;
65206;SDS011;58477;48.072;11.970;2023-08-30T02:30:52;11.23;;;7.60;;
65206;SDS011;58477;48.072;11.970;2023-08-30T02:33:19;11.88;;;7.50;;
65206;SDS011;58477;48.072;11.970;2023-08-30T02:35:44;11.02;;;8.00;;
65206;SDS011;58477;48.072;11.970;2023-08-30T02:38:10;15.18;;;8.18;;
65206;SDS011;58477;48.072;11.970;2023-08-30T02:40:35;10.90;;;7.55;;
65206;SDS011;58477;48.072;11.970;2023-08-30T02:43:01;11.15;;;7.75;;
65206;SDS011;58477;48.072;11.970;2023-08-30T02:45:26;10.73;;;7.50;;
65206;SDS011;58477;48.072;11.970;2023-08-30T02:47:54;9.73;;;7.10;;
65206;SDS011;58477;48.072;11.970;2023-08-30T02:50:20;12.85;;;8.18;;
65206;SDS011;58477;48.072;11.970;2023-08-30T02:52:46;9.63;;;7.05;;
65206;SDS011;58477;48.072;11.970;2023-08-30T02:55:11;31.08;;;7.22;;
65206;SDS011;58477;48.072;11.970;2023-08-30T02:57:36;8.90;;;7.25;;
65206;SDS011;58477;48.072;11.970;2023-08-30T03:00:02;10.63;;;6.85;;
65206;SDS011;58477;48.072;11.970;2023-08-30T03:02:31;10.10;;;7.65;;
65206;SDS011;58477;48.072;11.970;2023-08-30T03:04:58;9.85;;;7.00;;
65206;SDS011;58477;48.072;11.970;2023-08-30T03:07:24;9.40;;;7.60;;
65206;SDS011;58477;48.072;11.970;2023-08-30T03:09:52;19.35;;;7.32;;
65206;SDS011;58477;48.072;11.970;2023-08-30T03:12:19;9.32;;;7.20;;
65206;SDS011;58477;48.072;11.970;2023-08-30T03:14:46;9.32;;;7.05;;
65206;SDS011;58477;48.072;11.970;2023-08-30T03:17:12;10.18;;;7.07;;
65206;SDS011;58477;48.072;11.970;2023-08-30T03:19:37;9.05;;;6.55;;
65206;SDS011;58477;48.072;11.970;2023-08-30T03:22:03;9.80;;;7.40;;
65206;SDS011;58477;48.072;11.970;2023-08-30T03:24:28;8.13;;;6.43;;
65206;SDS011;58477;48.072;11.970;2023-08-30T03:26:54;9.55;;;6.80;;
65206;SDS011;58477;48.072;11.970;2023-08-30T03:29:19;8.20;;;6.78;;
65206;SDS011;58477;48.072;11.970;2023-08-30T03:31:46;8.63;;;6.80;;
65206;SDS011;58477;48.072;11.970;2023-08-30T03:34:11;9.48;;;6.50;;
65206;SDS011;58477;48.072;11.970;2023-08-30T03:36:37;9.82;;;6.80;;
65206;SDS011;58477;48.072;11.970;2023-08-30T03:39:03;8.10;;;6.25;;
65206;SDS011;58477;48.072;11.970;2023-08-30T03:41:28;8.25;;;6.40;;
65206;SDS011;58477;48.072;11.970;2023-08-30T03:43:54;8.65;;;6.85;;
65206;SDS011;58477;48.072;11.970;2023-08-30T03:46:20;9.07;;;6.50;;
65206;SDS011;58477;48.072;11.970;2023-08-30T03:48:45;9.40;;;6.38;;
65206;SDS011;58477;48.072;11.970;2023-08-30T03:51:11;7.85;;;6.00;;
65206;SDS011;58477;48.072;11.970;2023-08-30T03:53:36;6.43;;;5.70;;
65206;SDS011;58477;48.072;11.970;2023-08-30T03:56:02;9.02;;;6.32;;
65206;SDS011;58477;48.072;11.970;2023-08-30T03:58:31;9.32;;;5.80;;
65206;SDS011;58477;48.072;11.970;2023-08-30T04:00:57;11.45;;;5.78;;
65206;SDS011;58477;48.072;11.970;2023-08-30T04:03:22;7.03;;;5.32;;
65206;SDS011;58477;48.072;11.970;2023-08-30T04:05:48;6.20;;;5.28;;
65206;SDS011;58477;48.072;11.970;2023-08-30T04:08:20;8.07;;;5.50;;
65206;SDS011;58477;48.072;11.970;2023-08-30T04:10:45;7.25;;;4.93;;
65206;SDS011;58477;48.072;11.970;2023-08-30T04:13:12;9.13;;;5.45;;
65206;SDS011;58477;48.072;11.970;2023-08-30T04:15:38;6.38;;;4.95;;
65206;SDS011;58477;48.072;11.970;2023-08-30T04:18:04;7.00;;;5.20;;
65206;SDS011;58477;48.072;11.970;2023-08-30T04:20:30;5.90;;;5.15;;
65206;SDS011;58477;48.072;11.970;2023-08-30T04:22:57;5.55;;;4.78;;
65206;SDS011;58477;48.072;11.970;2023-08-30T04:25:23;7.32;;;5.55;;
65206;SDS011;58477;48.072;11.970;2023-08-30T04:27:49;6.57;;;4.72;;
65206;SDS011;58477;48.072;11.970;2023-08-30T04:30:16;7.18;;;5.43;;
65206;SDS011;58477;48.072;11.970;2023-08-30T04:32:42;10.20;;;5.28;;
65206;SDS011;58477;48.072;11.970;2023-08-30T04:35:07;5.63;;;4.65;;
65206;SDS011;58477;48.072;11.970;2023-08-30T04:37:33;6.15;;;5.18;;
65206;SDS011;58477;48.072;11.970;2023-08-30T04:39:59;5.65;;;4.93;;
65206;SDS011;58477;48.072;11.970;2023-08-30T04:42:25;8.60;;;5.07;;
65206;SDS011;58477;48.072;11.970;2023-08-30T04:44:50;6.05;;;4.82;;
65206;SDS011;58477;48.072;11.970;2023-08-30T04:47:17;7.78;;;5.28;;
65206;SDS011;58477;48.072;11.970;2023-08-30T04:49:43;5.03;;;4.53;;
65206;SDS011;58477;48.072;11.970;2023-08-30T04:52:10;5.50;;;4.45;;
65206;SDS011;58477;48.072;11.970;2023-08-30T04:54:36;5.45;;;4.40;;
65206;SDS011;58477;48.072;11.970;2023-08-30T04:57:01;4.90;;;4.03;;
65206;SDS011;58477;48.072;11.970;2023-08-30T04:59:28;6.82;;;4.32;;
65206;SDS011;58477;48.072;11.970;2023-08-30T05:01:53;5.72;;;4.57;;
65206;SDS011;58477;48.072;11.970;2023-08-30T05:04:22;5.35;;;4.35;;
65206;SDS011;58477;48.072;11.970;2023-08-30T05:06:47;5.25;;;4.20;;
65206;SDS011;58477;48.072;11.970;2023-08-30T05:09:15;6.50;;;4.70;;
65206;SDS011;58477;48.072;11.970;2023-08-30T05:11:40;4.72;;;4.15;;
65206;SDS011;58477;48.072;11.970;2023-08-30T05:14:06;7.35;;;4.38;;
65206;SDS011;58477;48.072;11.970;2023-08-30T05:16:32;5.10;;;4.05;;
65206;SDS011;58477;48.072;11.970;2023-08-30T05:18:57;10.43;;;4.28;;
65206;SDS011;58477;48.072;11.970;2023-08-30T05:21:23;5.32;;;4.15;;
65206;SDS011;58477;48.072;11.970;2023-08-30T05:23:48;5.57;;;4.38;;
65206;SDS011;58477;48.072;11.970;2023-08-30T05:26:13;4.72;;;4.13;;
65206;SDS011;58477;48.072;11.970;2023-08-30T05:28:41;4.60;;;3.97;;
65206;SDS011;58477;48.072;11.970;2023-08-30T05:31:07;4.88;;;4.25;;
65206;SDS011;58477;48.072;11.970;2023-08-30T05:33:53;5.93;;;4.72;;
65206;SDS011;58477;48.072;11.970;2023-08-30T05:36:37;5.35;;;4.07;;
65206;SDS011;58477;48.072;11.970;2023-08-30T05:39:22;5.38;;;4.13;;
65206;SDS011;58477;48.072;11.970;2023-08-30T05:41:52;4.85;;;4.28;;
65206;SDS011;58477;48.072;11.970;2023-08-30T05:44:20;7.45;;;3.95;;
65206;SDS011;58477;48.072;11.970;2023-08-30T05:46:45;6.53;;;3.97;;
65206;SDS011;58477;48.072;11.970;2023-08-30T05:49:11;5.38;;;4.30;;
65206;SDS011;58477;48.072;11.970;2023-08-30T05:51:36;5.03;;;4.13;;
65206;SDS011;58477;48.072;11.970;2023-08-30T05:54:02;6.50;;;3.97;;
65206;SDS011;58477;48.072;11.970;2023-08-30T05:56:27;4.60;;;3.97;;
65206;SDS011;58477;48.072;11.970;2023-08-30T05:58:53;4.75;;;3.75;;
65206;SDS011;58477;48.072;11.970;2023-08-30T06:01:18;5.43;;;3.83;;
65206;SDS011;58477;48.072;11.970;2023-08-30T06:03:45;5.43;;;4.63;;
65206;SDS011;58477;48.072;11.970;2023-08-30T06:06:11;6.25;;;3.80;;
65206;SDS011;58477;48.072;11.970;2023-08-30T06:08:37;4.40;;;3.78;;
65206;SDS011;58477;48.072;11.970;2023-08-30T06:11:03;5.10;;;4.38;;
65206;SDS011;58477;48.072;11.970;2023-08-30T06:13:28;4.38;;;3.97;;
65206;SDS011;58477;48.072;11.970;2023-08-30T06:15:53;6.28;;;4.53;;
65206;SDS011;58477;48.072;11.970;2023-08-30T06:18:19;4.68;;;4.03;;
65206;SDS011;58477;48.072;11.970;2023-08-30T06:20:44;4.65;;;3.97;;
65206;SDS011;58477;48.072;11.970;2023-08-30T06:23:11;6.93;;;4.68;;
65206;SDS011;58477;48.072;11.970;2023-08-30T06:25:36;5.82;;;4.10;;
65206;SDS011;58477;48.072;11.970;2023-08-30T06:28:02;4.68;;;3.95;;
65206;SDS011;58477;48.072;11.970;2023-08-30T06:30:28;6.40;;;4.25;;
65206;SDS011;58477;48.072;11.970;2023-08-30T06:32:54;5.68;;;3.70;;
65206;SDS011;58477;48.072;11.970;2023-08-30T06:35:20;5.07;;;4.05;;
65206;SDS011;58477;48.072;11.970;2023-08-30T06:37:46;4.50;;;4.10;;
65206;SDS011;58477;48.072;11.970;2023-08-30T06:40:11;4.63;;;4.22;;
65206;SDS011;58477;48.072;11.970;2023-08-30T06:42:37;5.70;;;4.03;;
65206;SDS011;58477;48.072;11.970;2023-08-30T06:45:03;5.70;;;4.45;;
65206;SDS011;58477;48.072;11.970;2023-08-30T06:47:29;5.40;;;4.18;;
65206;SDS011;58477;48.072;11.970;2023-08-30T06:49:55;6.72;;;4.35;;
65206;SDS011;58477;48.072;11.970;2023-08-30T06:52:20;4.30;;;3.90;;
65206;SDS011;58477;48.072;11.970;2023-08-30T06:54:45;6.00;;;4.65;;
65206;SDS011;58477;48.072;11.970;2023-08-30T06:57:11;6.22;;;4.53;;
65206;SDS011;58477;48.072;11.970;2023-08-30T06:59:36;5.50;;;4.57;;
65206;SDS011;58477;48.072;11.970;2023-08-30T07:02:02;5.13;;;4.57;;
65206;SDS011;58477;48.072;11.970;2023-08-30T07:04:28;6.00;;;4.70;;
65206;SDS011;58477;48.072;11.970;2023-08-30T07:06:54;4.47;;;4.07;;
65206;SDS011;58477;48.072;11.970;2023-08-30T07:09:19;5.72;;;4.68;;
65206;SDS011;58477;48.072;11.970;2023-08-30T07:11:45;4.63;;;4.18;;
65206;SDS011;58477;48.072;11.970;2023-08-30T07:14:11;6.88;;;4.50;;
65206;SDS011;58477;48.072;11.970;2023-08-30T07:16:37;5.72;;;4.10;;
65206;SDS011;58477;48.072;11.970;2023-08-30T07:19:03;4.60;;;3.92;;
65206;SDS011;58477;48.072;11.970;2023-08-30T07:21:29;5.78;;;3.78;;
65206;SDS011;58477;48.072;11.970;2023-08-30T07:23:54;6.22;;;3.80;;
65206;SDS011;58477;48.072;11.970;2023-08-30T07:26:19;5.05;;;4.03;;
65206;SDS011;58477;48.072;11.970;2023-08-30T07:28:45;5.45;;;4.25;;
65206;SDS011;58477;48.072;11.970;2023-08-30T07:31:11;4.30;;;3.90;;
65206;SDS011;58477;48.072;11.970;2023-08-30T07:33:39;6.03;;;4.47;;
65206;SDS011;58477;48.072;11.970;2023-08-30T07:36:04;9.25;;;4.15;;
65206;SDS011;58477;48.072;11.970;2023-08-30T07:38:30;4.43;;;3.80;;
65206;SDS011;58477;48.072;11.970;2023-08-30T07:40:56;15.07;;;5.25;;
65206;SDS011;58477;48.072;11.970;2023-08-30T07:43:21;6.53;;;4.43;;
65206;SDS011;58477;48.072;11.970;2023-08-30T07:45:47;7.00;;;4.82;;
65206;SDS011;58477;48.072;11.970;2023-08-30T07:48:12;5.72;;;4.40;;
65206;SDS011;58477;48.072;11.970;2023-08-30T07:50:38;4.60;;;4.13;;
65206;SDS011;58477;48.072;11.970;2023-08-30T07:53:03;4.38;;;3.97;;
65206;SDS011;58477;48.072;11.970;2023-08-30T07:55:29;4.95;;;4.25;;
65206;SDS011;58477;48.072;11.970;2023-08-30T07:57:54;4.65;;;4.15;;
65206;SDS011;58477;48.072;11.970;2023-08-30T08:00:20;5.97;;;4.65;;
65206;SDS011;58477;48.072;11.970;2023-08-30T08:02:45;5.85;;;4.85;;
65206;SDS011;58477;48.072;11.970;2023-08-30T08:05:11;6.85;;;4.93;;
65206;SDS011;58477;48.072;11.970;2023-08-30T08:07:42;5.38;;;4.53;;
65206;SDS011;58477;48.072;11.970;2023-08-30T08:10:08;4.93;;;4.18;;
65206;SDS011;58477;48.072;11.970;2023-08-30T08:12:34;4.65;;;4.18;;
65206;SDS011;58477;48.072;11.970;2023-08-30T08:15:00;5.03;;;4.35;;
65206;SDS011;58477;48.072;11.970;2023-08-30T08:17:25;5.55;;;4.18;;
65206;SDS011;58477;48.072;11.970;2023-08-30T08:19:50;4.55;;;3.80;;
65206;SDS011;58477;48.072;11.970;2023-08-30T08:22:16;4.13;;;3.72;;
65206;SDS011;58477;48.072;11.970;2023-08-30T08:24:42;4.28;;;3.60;;
65206;SDS011;58477;48.072;11.970;2023-08-30T08:27:11;3.30;;;3.00;;
65206;SDS011;58477;48.072;11.970;2023-08-30T08:29:37;3.88;;;3.50;;
65206;SDS011;58477;48.072;11.970;2023-08-30T08:32:03;4.03;;;3.38;;
65206;SDS011;58477;48.072;11.970;2023-08-30T08:34:28;3.40;;;3.10;;
65206;SDS011;58477;48.072;11.970;2023-08-30T08:36:54;3.58;;;3.28;;
65206;SDS011;58477;48.072;11.970;2023-08-30T08:39:19;3.40;;;3.00;;
65206;SDS011;58477;48.072;11.970;2023-08-30T08:41:45;3.55;;;2.95;;
65206;SDS011;58477;48.072;11.970;2023-08-30T08:44:11;3.28;;;2.97;;
65206;SDS011;58477;48.072;11.970;2023-08-30T08:46:38;3.60;;;2.85;;
65206;SDS011;58477;48.072;11.970;2023-08-30T08:49:07;2.47;;;2.28;;
65206;SDS011;58477;48.072;11.970;2023-08-30T08:51:35;3.63;;;2.47;;
65206;SDS011;58477;48.072;11.970;2023-08-30T08:54:02;2.63;;;2.40;;
65206;SDS011;58477;48.072;11.970;2023-08-30T08:56:29;2.70;;;2.50;;
65206;SDS011;58477;48.072;11.970;2023-08-30T08:58:56;2.83;;;2.13;;
65206;SDS011;58477;48.072;11.970;2023-08-30T09:01:22;2.08;;;1.98;;
65206;SDS011;58477;48.072;11.970;2023-08-30T09:03:48;2.33;;;2.10;;
65206;SDS011;58477;48.072;11.970;2023-08-30T09:06:15;2.20;;;2.10;;
65206;SDS011;58477;48.072;11.970;2023-08-30T09:08:41;2.40;;;2.20;;
65206;SDS011;58477;48.072;11.970;2023-08-30T09:11:06;2.05;;;1.95;;
65206;SDS011;58477;48.072;11.970;2023-08-30T09:13:32;2.70;;;2.38;;
65206;SDS011;58477;48.072;11.970;2023-08-30T09:15:57;2.40;;;2.20;;
65206;SDS011;58477;48.072;11.970;2023-08-30T09:18:23;2.22;;;2.03;;
65206;SDS011;58477;48.072;11.970;2023-08-30T09:20:52;2.22;;;2.03;;
65206;SDS011;58477;48.072;11.970;2023-08-30T09:23:21;2.42;;;2.22;;
65206;SDS011;58477;48.072;11.970;2023-08-30T09:25:54;3.42;;;2.13;;
65206;SDS011;58477;48.072;11.970;2023-08-30T09:28:20;2.00;;;1.90;;
65206;SDS011;58477;48.072;11.970;2023-08-30T09:30:52;2.22;;;2.03;;
65206;SDS011;58477;48.072;11.970;2023-08-30T09:33:21;2.40;;;2.20;;
65206;SDS011;58477;48.072;11.970;2023-08-30T09:35:47;1.98;;;1.80;;
65206;SDS011;58477;48.072;11.970;2023-08-30T09:38:18;2.15;;;2.05;;
65206;SDS011;58477;48.072;11.970;2023-08-30T09:40:44;2.25;;;2.05;;
65206;SDS011;58477;48.072;11.970;2023-08-30T09:43:11;2.03;;;1.83;;
65206;SDS011;58477;48.072;11.970;2023-08-30T09:45:37;2.10;;;1.90;;
65206;SDS011;58477;48.072;11.970;2023-08-30T09:48:03;1.80;;;1.70;;
65206;SDS011;58477;48.072;11.970;2023-08-30T09:50:31;1.92;;;1.80;;
65206;SDS011;58477;48.072;11.970;2023-08-30T09:53:00;2.95;;;1.92;;
65206;SDS011;58477;48.072;11.970;2023-08-30T09:55:32;2.00;;;1.80;;
65206;SDS011;58477;48.072;11.970;2023-08-30T09:57:58;2.05;;;1.92;;
65206;SDS011;58477;48.072;11.970;2023-08-30T10:00:24;2.35;;;1.85;;
65206;SDS011;58477;48.072;11.970;2023-08-30T10:02:50;2.92;;;2.13;;
65206;SDS011;58477;48.072;11.970;2023-08-30T10:05:16;2.15;;;2.00;;
65206;SDS011;58477;48.072;11.970;2023-08-30T10:07:42;3.17;;;1.98;;
65206;SDS011;58477;48.072;11.970;2023-08-30T10:10:09;4.35;;;1.85;;
65206;SDS011;58477;48.072;11.970;2023-08-30T10:12:35;1.38;;;1.27;;
65206;SDS011;58477;48.072;11.970;2023-08-30T10:15:02;1.48;;;1.38;;
65206;SDS011;58477;48.072;11.970;2023-08-30T10:17:30;2.15;;;1.60;;
65206;SDS011;58477;48.072;11.970;2023-08-30T10:19:57;2.42;;;2.22;;
65206;SDS011;58477;48.072;11.970;2023-08-30T10:22:24;3.03;;;1.65;;
65206;SDS011;58477;48.072;11.970;2023-08-30T10:27:24;3.33;;;1.95;;
65206;SDS011;58477;48.072;11.970;2023-08-30T10:29:51;2.92;;;2.00;;
65206;SDS011;58477;48.072;11.970;2023-08-30T10:32:21;2.13;;;1.52;;
65206;SDS011;58477;48.072;11.970;2023-08-30T10:34:47;1.95;;;1.73;;
65206;SDS011;58477;48.072;11.970;2023-08-30T10:37:14;1.75;;;1.63;;
65206;SDS011;58477;48.072;11.970;2023-08-30T10:39:40;2.17;;;1.40;;
65206;SDS011;58477;48.072;11.970;2023-08-30T10:42:12;1.10;;;1.08;;
65206;SDS011;58477;48.072;11.970;2023-08-30T10:50:09;1.45;;;1.35;;
65206;SDS011;58477;48.072;11.970;2023-08-30T10:52:56;1.55;;;1.33;;
65206;SDS011;58477;48.072;11.970;2023-08-30T10:55:23;3.72;;;1.40;;
65206;SDS011;58477;48.072;11.970;2023-08-30T10:57:57;1.60;;;1.50;;
65206;SDS011;58477;48.072;11.970;2023-08-30T11:00:27;2.03;;;1.50;;
65206;SDS011;58477;48.072;11.970;2023-08-30T11:02:54;2.28;;;1.45;;
65206;SDS011;58477;48.072;11.970;2023-08-30T11:05:21;3.67;;;1.50;;
65206;SDS011;58477;48.072;11.970;2023-08-30T11:07:48;1.60;;;1.30;;
65206;SDS011;58477;48.072;11.970;2023-08-30T11:10:16;1.77;;;1.30;;
65206;SDS011;58477;48.072;11.970;2023-08-30T11:12:42;2.17;;;1.23;;
65206;SDS011;58477;48.072;11.970;2023-08-30T11:15:10;1.23;;;1.13;;
65206;SDS011;58477;48.072;11.970;2023-08-30T11:17:39;1.17;;;1.08;;
65206;SDS011;58477;48.072;11.970;2023-08-30T11:20:05;1.13;;;1.10;;
65206;SDS011;58477;48.072;11.970;2023-08-30T11:22:33;1.58;;;1.20;;
65206;SDS011;58477;48.072;11.970;2023-08-30T11:25:01;1.00;;;1.00;;
65206;SDS011;58477;48.072;11.970;2023-08-30T11:27:26;1.10;;;1.00;;
65206;SDS011;58477;48.072;11.970;2023-08-30T11:29:52;0.88;;;0.88;;
65206;SDS011;58477;48.072;11.970;2023-08-30T11:32:17;1.65;;;0.90;;
65206;SDS011;58477;48.072;11.970;2023-08-30T11:34:44;1.65;;;1.48;;
65206;SDS011;58477;48.072;11.970;2023-08-30T11:37:21;1.00;;;0.90;;
65206;SDS011;58477;48.072;11.970;2023-08-30T11:39:46;1.27;;;1.02;;
65206;SDS011;58477;48.072;11.970;2023-08-30T11:42:17;1.10;;;1.00;;
65206;SDS011;58477;48.072;11.970;2023-08-30T11:44:43;1.30;;;0.95;;
65206;SDS011;58477;48.072;11.970;2023-08-30T11:47:09;1.75;;;0.80;;
65206;SDS011;58477;48.072;11.970;2023-08-30T11:49:35;0.88;;;0.88;;
65206;SDS011;58477;48.072;11.970;2023-08-30T11:52:01;2.83;;;1.00;;
65206;SDS011;58477;48.072;11.970;2023-08-30T11:54:27;0.90;;;0.90;;
65206;SDS011;58477;48.072;11.970;2023-08-30T11:56:53;0.95;;;0.88;;
65206;SDS011;58477;48.072;11.970;2023-08-30T11:59:21;0.95;;;0.90;;
65206;SDS011;58477;48.072;11.970;2023-08-30T12:01:48;1.13;;;1.10;;
65206;SDS011;58477;48.072;11.970;2023-08-30T12:04:14;1.00;;;0.80;;
65206;SDS011;58477;48.072;11.970;2023-08-30T12:06:40;0.90;;;0.90;;
65206;SDS011;58477;48.072;11.970;2023-08-30T12:09:05;0.93;;;0.93;;
65206;SDS011;58477;48.072;11.970;2023-08-30T12:11:37;1.38;;;1.10;;
65206;SDS011;58477;48.072;11.970;2023-08-30T12:14:02;1.35;;;1.00;;
65206;SDS011;58477;48.072;11.970;2023-08-30T12:16:28;1.83;;;0.93;;
65206;SDS011;58477;48.072;11.970;2023-08-30T12:18:53;0.90;;;0.85;;
65206;SDS011;58477;48.072;11.970;2023-08-30T12:21:19;1.45;;;0.90;;
65206;SDS011;58477;48.072;11.970;2023-08-30T12:23:44;1.83;;;1.25;;
65206;SDS011;58477;48.072;11.970;2023-08-30T12:26:10;0.98;;;0.80;;
65206;SDS011;58477;48.072;11.970;2023-08-30T12:28:39;1.33;;;0.85;;
65206;SDS011;58477;48.072;11.970;2023-08-30T12:31:06;1.25;;;1.02;;
65206;SDS011;58477;48.072;11.970;2023-08-30T12:33:35;0.98;;;0.82;;
65206;SDS011;58477;48.072;11.970;2023-08-30T12:36:00;0.63;;;0.63;;
65206;SDS011;58477;48.072;11.970;2023-08-30T12:38:26;0.73;;;0.73;;
65206;SDS011;58477;48.072;11.970;2023-08-30T12:40:53;0.93;;;0.93;;
65206;SDS011;58477;48.072;11.970;2023-08-30T12:43:20;0.90;;;0.90;;
65206;SDS011;58477;48.072;11.970;2023-08-30T12:45:46;0.80;;;0.80;;
65206;SDS011;58477;48.072;11.970;2023-08-30T12:48:14;1.25;;;0.93;;
65206;SDS011;58477;48.072;11.970;2023-08-30T12:50:41;1.42;;;1.00;;
65206;SDS011;58477;48.072;11.970;2023-08-30T12:53:09;1.00;;;0.90;;
65206;SDS011;58477;48.072;11.970;2023-08-30T12:55:34;2.63;;;1.42;;
65206;SDS011;58477;48.072;11.970;2023-08-30T12:58:00;0.90;;;0.90;;
65206;SDS011;58477;48.072;11.970;2023-08-30T13:00:26;0.77;;;0.77;;
65206;SDS011;58477;48.072;11.970;2023-08-30T13:02:52;0.80;;;0.80;;
65206;SDS011;58477;48.072;11.970;2023-08-30T13:05:18;1.48;;;0.80;;
65206;SDS011;58477;48.072;11.970;2023-08-30T13:07:43;0.70;;;0.70;;
65206;SDS011;58477;48.072;11.970;2023-08-30T13:10:09;3.60;;;1.30;;
65206;SDS011;58477;48.072;11.970;2023-08-30T13:12:35;0.93;;;0.93;;
65206;SDS011;58477;48.072;11.970;2023-08-30T13:15:01;2.40;;;0.95;;
65206;SDS011;58477;48.072;11.970;2023-08-30T13:17:27;0.90;;;0.90;;
65206;SDS011;58477;48.072;11.970;2023-08-30T13:19:52;1.55;;;1.10;;
65206;SDS011;58477;48.072;11.970;2023-08-30T13:22:18;1.00;;;0.93;;
65206;SDS011;58477;48.072;11.970;2023-08-30T13:24:43;1.55;;;1.10;;
65206;SDS011;58477;48.072;11.970;2023-08-30T13:27:09;0.82;;;0.82;;
65206;SDS011;58477;48.072;11.970;2023-08-30T13:29:35;0.95;;;0.75;;
65206;SDS011;58477;48.072;11.970;2023-08-30T13:32:01;3.50;;;0.80;;
65206;SDS011;58477;48.072;11.970;2023-08-30T13:34:26;2.10;;;1.00;;
65206;SDS011;58477;48.072;11.970;2023-08-30T13:36:52;1.45;;;0.90;;
65206;SDS011;58477;48.072;11.970;2023-08-30T13:39:17;0.80;;;0.80;;
65206;SDS011;58477;48.072;11.970;2023-08-30T13:41:45;0.90;;;0.90;;
65206;SDS011;58477;48.072;11.970;2023-08-30T13:44:12;0.90;;;0.90;;
65206;SDS011;58477;48.072;11.970;2023-08-30T13:46:38;0.80;;;0.80;;
65206;SDS011;58477;48.072;11.970;2023-08-30T13:49:04;0.82;;;0.80;;
65206;SDS011;58477;48.072;11.970;2023-08-30T13:51:30;1.50;;;0.98;;
65206;SDS011;58477;48.072;11.970;2023-08-30T13:53:55;1.60;;;1.15;;
65206;SDS011;58477;48.072;11.970;2023-08-30T13:56:21;0.80;;;0.80;;
65206;SDS011;58477;48.072;11.970;2023-08-30T13:58:47;1.27;;;0.85;;
65206;SDS011;58477;48.072;11.970;2023-08-30T14:01:12;0.85;;;0.85;;
65206;SDS011;58477;48.072;11.970;2023-08-30T14:03:38;1.02;;;0.82;;
65206;SDS011;58477;48.072;11.970;2023-08-30T14:06:03;1.00;;;0.90;;
65206;SDS011;58477;48.072;11.970;2023-08-30T14:08:30;0.88;;;0.88;;
65206;SDS011;58477;48.072;11.970;2023-08-30T14:10:56;0.80;;;0.80;;
65206;SDS011;58477;48.072;11.970;2023-08-30T14:13:22;1.10;;;1.00;;
65206;SDS011;58477;48.072;11.970;2023-08-30T14:15:47;0.90;;;0.90;;
65206;SDS011;58477;48.072;11.970;2023-08-30T14:18:13;0.93;;;0.90;;
65206;SDS011;58477;48.072;11.970;2023-08-30T14:20:40;2.10;;;1.15;;
65206;SDS011;58477;48.072;11.970;2023-08-30T14:23:08;1.17;;;1.00;;
65206;SDS011;58477;48.072;11.970;2023-08-30T14:25:34;1.30;;;1.20;;
65206;SDS011;58477;48.072;11.970;2023-08-30T14:28:00;1.67;;;1.08;;
65206;SDS011;58477;48.072;11.970;2023-08-30T14:30:26;1.73;;;1.00;;
65206;SDS011;58477;48.072;11.970;2023-08-30T14:32:52;0.90;;;0.90;;
65206;SDS011;58477;48.072;11.970;2023-08-30T14:35:17;3.20;;;1.10;;
65206;SDS011;58477;48.072;11.970;2023-08-30T14:37:46;0.95;;;0.95;;
65206;SDS011;58477;48.072;11.970;2023-08-30T14:40:12;1.23;;;1.13;;
65206;SDS011;58477;48.072;11.970;2023-08-30T14:42:38;1.73;;;1.25;;